createdAt,value
2023-06-29T00:00:07.237Z,21.31
2023-06-29T00:02:33.670Z,21.20
2023-06-29T00:05:00.105Z,21.04
2023-06-29T00:07:26.573Z,21.08
2023-06-29T00:09:55.945Z,21.01
2023-06-29T00:12:22.363Z,21.01
2023-06-29T00:14:48.711Z,20.93
2023-06-29T00:17:17.016Z,21.00
2023-06-29T00:19:43.512Z,21.00
2023-06-29T00:22:10.238Z,20.92
2023-06-29T00:24:43.444Z,20.99
2023-06-29T00:27:13.202Z,21.05
2023-06-29T00:29:41.400Z,21.05
2023-06-29T00:32:08.153Z,21.02
2023-06-29T00:34:34.541Z,20.88
2023-06-29T00:37:00.992Z,20.75
2023-06-29T00:39:27.331Z,20.67
2023-06-29T00:41:57.173Z,20.61
2023-06-29T00:44:23.590Z,20.67
2023-06-29T00:46:50.712Z,20.56
2023-06-29T00:49:17.596Z,20.38
2023-06-29T00:51:48.033Z,20.35
2023-06-29T00:54:14.496Z,20.42
2023-06-29T00:56:42.953Z,20.45
2023-06-29T00:59:09.340Z,20.54
2023-06-29T01:01:36.004Z,20.57
2023-06-29T01:04:02.526Z,20.55
2023-06-29T01:06:32.482Z,20.48
2023-06-29T01:09:06.619Z,20.37
2023-06-29T01:11:34.479Z,20.45
2023-06-29T01:14:02.246Z,20.56
2023-06-29T01:16:34.011Z,20.62
2023-06-29T01:19:10.366Z,20.66
2023-06-29T01:21:40.265Z,20.64
2023-06-29T01:24:07.092Z,20.50
2023-06-29T01:26:33.451Z,20.25
2023-06-29T01:29:00.727Z,20.25
2023-06-29T01:31:28.290Z,20.32
2023-06-29T01:33:54.958Z,20.38
2023-06-29T01:36:25.784Z,20.32
2023-06-29T01:39:15.465Z,20.25
2023-06-29T01:41:43.277Z,20.31
2023-06-29T01:44:12.614Z,20.35
2023-06-29T01:46:40.450Z,20.38
2023-06-29T01:49:07.435Z,20.47
2023-06-29T01:51:33.880Z,20.46
2023-06-29T01:54:00.405Z,20.42
2023-06-29T01:56:26.775Z,20.33
2023-06-29T01:58:53.135Z,20.26
2023-06-29T02:01:19.539Z,20.18
2023-06-29T02:03:46.100Z,20.24
2023-06-29T02:06:12.606Z,20.30
2023-06-29T02:08:39.956Z,20.33
2023-06-29T02:11:06.346Z,20.33
2023-06-29T02:13:32.731Z,20.25
2023-06-29T02:15:59.182Z,20.30
2023-06-29T02:18:25.581Z,20.30
2023-06-29T02:20:52.293Z,20.31
2023-06-29T02:23:18.748Z,20.22
2023-06-29T02:25:45.305Z,20.08
2023-06-29T02:28:11.868Z,19.98
2023-06-29T02:30:38.221Z,19.96
2023-06-29T02:33:04.680Z,19.99
2023-06-29T02:35:31.069Z,20.08
2023-06-29T02:37:57.480Z,20.14
2023-06-29T02:40:23.817Z,20.15
2023-06-29T02:42:50.216Z,20.22
2023-06-29T02:45:16.771Z,19.99
2023-06-29T02:47:43.208Z,19.84
2023-06-29T02:50:09.954Z,19.80
2023-06-29T02:52:36.313Z,19.76
2023-06-29T02:55:02.769Z,19.81
2023-06-29T02:57:29.215Z,19.78
2023-06-29T02:59:55.563Z,19.71
2023-06-29T03:02:21.960Z,19.76
2023-06-29T03:04:48.393Z,19.79
2023-06-29T03:07:14.926Z,19.81
2023-06-29T03:09:41.307Z,19.74
2023-06-29T03:12:09.818Z,19.79
2023-06-29T03:14:36.143Z,19.74
2023-06-29T03:17:02.624Z,19.52
2023-06-29T03:19:28.965Z,19.44
2023-06-29T03:21:55.399Z,19.50
2023-06-29T03:24:21.730Z,19.46
2023-06-29T03:26:48.117Z,19.27
2023-06-29T03:29:14.449Z,19.25
2023-06-29T03:31:40.913Z,19.33
2023-06-29T03:34:07.255Z,19.36
2023-06-29T03:36:33.615Z,19.37
2023-06-29T03:38:59.969Z,19.46
2023-06-29T03:41:26.322Z,19.38
2023-06-29T03:43:52.658Z,19.45
2023-06-29T03:46:19.037Z,19.43
2023-06-29T03:48:45.412Z,19.49
2023-06-29T03:51:11.827Z,19.55
2023-06-29T03:53:38.210Z,19.58
2023-06-29T03:56:04.812Z,19.50
2023-06-29T03:58:31.200Z,19.31
2023-06-29T04:00:57.638Z,19.36
2023-06-29T04:03:24.064Z,19.52
2023-06-29T04:05:50.483Z,19.60
2023-06-29T04:08:16.834Z,19.60
2023-06-29T04:10:43.235Z,19.38
2023-06-29T04:13:09.673Z,19.38
2023-06-29T04:15:36.407Z,19.46
2023-06-29T04:18:03.008Z,19.52
2023-06-29T04:20:30.087Z,19.43
2023-06-29T04:22:56.907Z,19.44
2023-06-29T04:25:23.235Z,19.60
2023-06-29T04:27:49.635Z,19.79
2023-06-29T04:30:18.876Z,19.76
2023-06-29T04:32:45.648Z,19.81
2023-06-29T04:35:12.977Z,19.85
2023-06-29T04:37:42.680Z,19.86
2023-06-29T04:40:10.671Z,19.84
2023-06-29T04:42:45.072Z,19.77
2023-06-29T04:45:19.273Z,19.73
2023-06-29T04:47:46.622Z,19.75
2023-06-29T04:50:13.434Z,19.87
2023-06-29T04:52:39.839Z,19.96
2023-06-29T04:55:06.280Z,20.04
2023-06-29T04:57:32.603Z,20.09
2023-06-29T04:59:58.998Z,20.15
2023-06-29T05:02:25.991Z,20.10
2023-06-29T05:04:52.472Z,20.20
2023-06-29T05:07:18.913Z,20.12
2023-06-29T05:09:45.278Z,20.23
2023-06-29T05:12:11.695Z,20.35
2023-06-29T05:14:38.068Z,20.38
2023-06-29T05:17:05.374Z,20.44
2023-06-29T05:19:33.105Z,20.48
2023-06-29T05:21:59.568Z,20.39
2023-06-29T05:24:26.462Z,20.47
2023-06-29T05:26:52.877Z,20.53
2023-06-29T05:29:19.274Z,20.54
2023-06-29T05:31:45.830Z,20.46
2023-06-29T05:34:12.248Z,20.45
2023-06-29T05:36:38.600Z,20.46
2023-06-29T05:39:06.180Z,20.58
2023-06-29T05:41:32.528Z,20.85
2023-06-29T05:43:58.981Z,21.04
2023-06-29T05:46:25.415Z,21.18
2023-06-29T05:48:51.927Z,21.39
2023-06-29T05:51:18.337Z,21.58
2023-06-29T05:53:44.677Z,21.77
2023-06-29T05:56:11.025Z,21.79
2023-06-29T05:58:37.363Z,21.90
2023-06-29T06:01:06.724Z,21.99
2023-06-29T06:03:34.245Z,22.07
2023-06-29T06:06:00.636Z,22.23
2023-06-29T06:08:27.145Z,22.15
2023-06-29T06:10:53.542Z,22.19
2023-06-29T06:13:20.132Z,22.25
2023-06-29T06:15:46.669Z,22.39
2023-06-29T06:18:13.092Z,22.43
2023-06-29T06:20:39.589Z,22.39
2023-06-29T06:23:05.992Z,22.54
2023-06-29T06:25:32.374Z,22.83
2023-06-29T06:27:58.781Z,22.87
2023-06-29T06:30:25.289Z,22.86
2023-06-29T06:32:51.838Z,22.91
2023-06-29T06:35:18.294Z,23.01
2023-06-29T06:37:44.761Z,23.10
2023-06-29T06:40:11.883Z,22.92
2023-06-29T06:42:39.591Z,23.15
2023-06-29T06:45:07.104Z,22.99
2023-06-29T06:47:34.131Z,23.31
2023-06-29T06:50:00.926Z,23.53
2023-06-29T06:52:27.433Z,23.82
2023-06-29T06:54:54.050Z,24.02
2023-06-29T06:57:20.551Z,24.23
2023-06-29T06:59:46.955Z,24.16
2023-06-29T07:02:13.601Z,24.15
2023-06-29T07:04:40.087Z,23.71
2023-06-29T07:07:07.353Z,23.77
2023-06-29T07:09:33.779Z,23.91
2023-06-29T07:12:00.498Z,23.62
2023-06-29T07:14:27.063Z,23.59
2023-06-29T07:16:53.567Z,23.67
2023-06-29T07:24:20.560Z,23.61
2023-06-29T07:26:46.952Z,23.99
2023-06-29T07:29:13.924Z,24.21
2023-06-29T07:31:40.814Z,24.25
2023-06-29T07:34:07.148Z,24.26
2023-06-29T07:36:38.576Z,24.37
2023-06-29T07:39:05.299Z,24.43
2023-06-29T07:41:32.923Z,24.56
2023-06-29T07:44:00.991Z,24.79
2023-06-29T07:46:27.405Z,25.02
2023-06-29T07:48:54.584Z,25.07
2023-06-29T07:51:22.843Z,24.90
2023-06-29T07:53:49.405Z,24.70
2023-06-29T07:56:15.968Z,24.71
2023-06-29T07:58:42.712Z,25.15
2023-06-29T08:01:09.415Z,25.37
2023-06-29T08:03:50.993Z,25.68
2023-06-29T08:08:52.448Z,25.23
2023-06-29T08:11:19.008Z,25.25
2023-06-29T08:13:45.470Z,25.25
2023-06-29T08:16:11.924Z,25.55
2023-06-29T08:18:38.370Z,25.92
2023-06-29T08:21:04.970Z,25.98
2023-06-29T08:23:34.571Z,26.27
2023-06-29T08:26:00.984Z,26.04
2023-06-29T08:28:27.364Z,25.82
2023-06-29T08:30:53.865Z,25.78
2023-06-29T08:33:20.326Z,25.94
2023-06-29T08:35:46.900Z,26.21
2023-06-29T08:38:13.324Z,26.33
2023-06-29T08:40:40.234Z,26.25
2023-06-29T08:43:06.689Z,26.24
2023-06-29T08:45:33.068Z,26.18
2023-06-29T08:48:00.181Z,25.95
2023-06-29T08:50:27.617Z,26.27
2023-06-29T08:52:54.094Z,26.56
2023-06-29T08:55:20.888Z,26.98
2023-06-29T08:57:47.449Z,27.21
2023-06-29T09:00:14.420Z,26.93
2023-06-29T09:02:40.900Z,26.92
2023-06-29T09:05:07.993Z,27.14
2023-06-29T09:07:35.415Z,26.93
2023-06-29T09:10:05.479Z,26.78
2023-06-29T09:12:31.820Z,26.59
2023-06-29T09:14:59.489Z,26.82
2023-06-29T09:17:27.730Z,27.01
2023-06-29T09:19:55.954Z,26.86
2023-06-29T09:22:22.752Z,26.84
2023-06-29T09:25:03.000Z,26.93
2023-06-29T09:27:34.244Z,26.83
2023-06-29T09:30:01.588Z,26.50
2023-06-29T09:32:31.208Z,26.54
2023-06-29T09:35:05.792Z,26.82
2023-06-29T09:37:32.156Z,27.33
2023-06-29T09:40:02.662Z,27.39
2023-06-29T09:42:34.738Z,27.56
2023-06-29T09:45:02.296Z,27.76
2023-06-29T09:49:58.892Z,27.96
2023-06-29T09:52:25.297Z,27.75
2023-06-29T09:54:56.943Z,27.75
2023-06-29T09:57:23.755Z,27.76
2023-06-29T09:59:50.812Z,27.82
2023-06-29T10:02:19.191Z,27.96
2023-06-29T10:04:46.412Z,27.94
2023-06-29T10:07:16.531Z,28.18
2023-06-29T10:09:46.628Z,28.18
2023-06-29T10:12:13.421Z,28.04
2023-06-29T10:14:40.460Z,28.44
2023-06-29T10:17:09.073Z,28.51
2023-06-29T10:19:37.951Z,28.97
2023-06-29T10:22:06.522Z,29.08
2023-06-29T10:24:44.658Z,29.49
2023-06-29T10:27:11.607Z,29.89
2023-06-29T10:29:45.274Z,30.03
2023-06-29T10:32:29.113Z,29.81
2023-06-29T10:35:04.027Z,30.00
2023-06-29T10:37:34.086Z,30.19
2023-06-29T10:40:00.823Z,29.89
2023-06-29T10:42:27.378Z,29.74
2023-06-29T10:44:53.783Z,29.50
2023-06-29T10:47:29.513Z,29.61
2023-06-29T10:50:11.091Z,29.86
2023-06-29T10:52:37.886Z,30.11
2023-06-29T10:55:14.449Z,30.01
2023-06-29T10:57:40.946Z,30.28
2023-06-29T11:00:07.662Z,30.04
2023-06-29T11:02:34.848Z,29.76
2023-06-29T11:05:01.393Z,29.59
2023-06-29T11:07:28.227Z,30.01
2023-06-29T11:10:01.160Z,30.45
2023-06-29T11:12:27.606Z,30.97
2023-06-29T11:15:14.019Z,31.32
2023-06-29T11:17:42.108Z,31.51
2023-06-29T11:20:11.928Z,31.58
2023-06-29T11:22:38.293Z,31.27
2023-06-29T11:25:05.518Z,31.63
2023-06-29T11:27:32.066Z,31.88
2023-06-29T11:29:58.675Z,31.58
2023-06-29T11:32:27.460Z,31.61
2023-06-29T11:35:01.076Z,30.49
2023-06-29T11:37:30.809Z,30.59
2023-06-29T11:39:57.500Z,30.77
2023-06-29T11:42:25.881Z,30.82
2023-06-29T11:45:10.830Z,30.57
2023-06-29T11:47:37.767Z,30.80
2023-06-29T11:50:08.421Z,30.74
2023-06-29T11:52:35.709Z,30.95
2023-06-29T11:55:07.232Z,31.55
2023-06-29T11:57:34.339Z,31.70
2023-06-29T12:00:04.714Z,31.97
2023-06-29T12:02:31.210Z,31.97
2023-06-29T12:04:58.581Z,32.24
2023-06-29T12:07:41.607Z,32.19
2023-06-29T12:10:12.426Z,32.12
2023-06-29T12:12:46.851Z,32.17
2023-06-29T12:15:16.856Z,32.26
2023-06-29T12:20:13.547Z,32.72
2023-06-29T12:22:40.284Z,32.91
2023-06-29T12:25:09.418Z,32.90
2023-06-29T12:27:35.847Z,32.67
2023-06-29T12:30:02.734Z,32.39
2023-06-29T12:32:29.088Z,32.50
2023-06-29T12:34:55.568Z,32.57
2023-06-29T12:37:21.901Z,32.64
2023-06-29T12:39:49.546Z,32.91
2023-06-29T12:42:16.028Z,32.97
2023-06-29T12:44:42.500Z,33.03
2023-06-29T12:47:08.921Z,32.80
2023-06-29T12:49:35.646Z,32.47
2023-06-29T12:52:04.456Z,32.84
2023-06-29T12:54:32.093Z,33.27
2023-06-29T12:56:58.634Z,33.35
2023-06-29T12:59:24.998Z,33.50
2023-06-29T13:01:51.430Z,33.74
2023-06-29T13:04:17.963Z,33.78
2023-06-29T13:06:44.423Z,32.88
2023-06-29T13:09:10.842Z,32.79
2023-06-29T13:11:37.633Z,32.62
2023-06-29T13:14:03.983Z,32.46
2023-06-29T13:16:33.270Z,32.58
2023-06-29T13:19:01.497Z,32.75
2023-06-29T13:21:28.073Z,32.89
2023-06-29T13:23:54.488Z,32.81
2023-06-29T13:26:20.940Z,32.73
2023-06-29T13:28:47.318Z,32.63
2023-06-29T13:31:13.816Z,32.17
2023-06-29T13:33:40.254Z,32.14
2023-06-29T13:36:06.692Z,32.30
2023-06-29T13:38:33.205Z,32.13
2023-06-29T13:40:59.713Z,31.74
2023-06-29T13:43:26.066Z,31.55
2023-06-29T13:45:52.774Z,31.38
2023-06-29T13:48:20.726Z,31.39
2023-06-29T13:50:47.358Z,31.16
2023-06-29T13:53:15.645Z,31.00
2023-06-29T13:55:44.809Z,30.90
2023-06-29T13:58:11.984Z,30.72
2023-06-29T14:00:38.474Z,30.37
2023-06-29T14:03:05.417Z,30.24
2023-06-29T14:05:32.249Z,30.21
2023-06-29T14:07:58.842Z,30.04
2023-06-29T14:10:25.641Z,29.88
2023-06-29T14:12:52.269Z,29.73
2023-06-29T14:15:18.705Z,29.87
2023-06-29T14:17:45.123Z,29.91
2023-06-29T14:20:11.722Z,29.97
2023-06-29T14:22:38.052Z,29.97
2023-06-29T14:25:04.923Z,29.71
2023-06-29T14:27:31.361Z,29.31
2023-06-29T14:29:57.696Z,29.30
2023-06-29T14:32:24.283Z,29.28
2023-06-29T14:34:51.738Z,29.24
2023-06-29T14:37:18.183Z,29.16
2023-06-29T14:39:44.826Z,29.09
2023-06-29T14:42:11.202Z,28.99
2023-06-29T14:44:37.547Z,28.89
2023-06-29T14:47:04.225Z,28.53
2023-06-29T14:49:30.556Z,27.86
2023-06-29T14:51:56.982Z,27.33
2023-06-29T14:54:23.427Z,26.81
2023-06-29T14:56:49.838Z,26.44
2023-06-29T14:59:16.430Z,26.11
2023-06-29T15:01:43.069Z,26.09
2023-06-29T15:04:09.627Z,26.01
2023-06-29T15:06:36.016Z,25.98
2023-06-29T15:09:03.231Z,25.86
2023-06-29T15:11:29.601Z,25.44
2023-06-29T15:13:56.062Z,25.22
2023-06-29T15:16:22.502Z,25.18
2023-06-29T15:18:59.162Z,25.23
2023-06-29T15:21:27.144Z,25.37
2023-06-29T15:23:53.721Z,25.22
2023-06-29T15:26:20.163Z,24.67
2023-06-29T15:28:46.520Z,24.46
2023-06-29T15:31:12.972Z,24.42
2023-06-29T15:33:39.404Z,24.22
2023-06-29T15:36:05.815Z,23.93
2023-06-29T15:38:32.375Z,23.81
2023-06-29T15:40:58.775Z,23.64
2023-06-29T15:43:25.146Z,23.39
2023-06-29T15:45:51.581Z,23.26
2023-06-29T15:48:18.185Z,23.05
2023-06-29T15:50:45.599Z,23.01
2023-06-29T15:53:14.364Z,23.03
2023-06-29T15:55:40.896Z,22.95
2023-06-29T15:58:07.321Z,22.74
2023-06-29T16:00:33.743Z,22.77
2023-06-29T16:03:00.202Z,22.84
2023-06-29T16:05:26.668Z,22.75
2023-06-29T16:07:54.091Z,22.36
2023-06-29T16:10:20.501Z,22.39
2023-06-29T16:12:46.869Z,22.20
2023-06-29T16:15:13.228Z,22.16
2023-06-29T16:17:39.717Z,22.11
2023-06-29T16:20:06.396Z,22.06
2023-06-29T16:22:34.168Z,21.91
2023-06-29T16:25:00.784Z,22.04
2023-06-29T16:27:27.316Z,22.13
2023-06-29T16:29:53.845Z,22.07
2023-06-29T16:32:20.363Z,22.28
2023-06-29T16:34:47.598Z,22.35
2023-06-29T16:37:14.252Z,22.45
2023-06-29T16:39:40.788Z,22.65
2023-06-29T16:42:07.926Z,22.94
2023-06-29T16:44:34.318Z,23.02
2023-06-29T16:47:01.450Z,23.17
2023-06-29T16:49:28.203Z,23.31
2023-06-29T16:51:55.827Z,23.33
2023-06-29T16:54:22.446Z,23.24
2023-06-29T16:56:49.133Z,23.26
2023-06-29T16:59:15.526Z,23.23
2023-06-29T17:01:41.933Z,23.21
2023-06-29T17:04:08.494Z,22.76
2023-06-29T17:06:36.820Z,22.76
2023-06-29T17:09:03.234Z,22.81
2023-06-29T17:11:29.598Z,22.79
2023-06-29T17:13:57.359Z,22.52
2023-06-29T17:16:23.853Z,22.42
2023-06-29T17:18:50.354Z,22.18
2023-06-29T17:21:18.380Z,22.40
2023-06-29T17:23:44.709Z,22.35
2023-06-29T17:26:11.173Z,21.95
2023-06-29T17:28:37.601Z,21.87
2023-06-29T17:31:03.983Z,22.08
2023-06-29T17:33:37.934Z,22.02
2023-06-29T17:36:11.691Z,21.78
2023-06-29T17:38:38.076Z,21.53
2023-06-29T17:41:04.444Z,21.41
2023-06-29T17:43:30.815Z,21.33
2023-06-29T17:45:57.208Z,21.27
2023-06-29T17:48:23.629Z,21.44
2023-06-29T17:50:50.695Z,21.57
2023-06-29T17:53:17.083Z,21.54
2023-06-29T17:55:43.741Z,21.67
2023-06-29T17:58:10.373Z,21.80
2023-06-29T18:00:36.883Z,21.82
2023-06-29T18:03:03.301Z,21.65
2023-06-29T18:05:29.682Z,21.57
2023-06-29T18:07:56.108Z,21.45
2023-06-29T18:10:22.489Z,21.34
2023-06-29T18:12:48.856Z,21.27
2023-06-29T18:15:15.226Z,21.20
2023-06-29T18:17:41.605Z,21.16
2023-06-29T18:20:08.517Z,21.15
2023-06-29T18:22:35.352Z,21.17
2023-06-29T18:25:01.884Z,21.23
2023-06-29T18:27:28.728Z,21.15
2023-06-29T18:29:55.213Z,21.09
2023-06-29T18:32:21.615Z,21.04
2023-06-29T18:34:48.403Z,20.91
2023-06-29T18:37:15.236Z,20.98
2023-06-29T18:39:42.081Z,21.03
2023-06-29T18:42:08.585Z,21.06
2023-06-29T18:44:35.151Z,21.07
2023-06-29T18:47:06.976Z,20.88
2023-06-29T18:49:49.857Z,20.86
2023-06-29T18:52:18.492Z,21.01
2023-06-29T18:54:44.894Z,21.01
2023-06-29T18:57:11.644Z,21.11
2023-06-29T18:59:39.252Z,21.17
2023-06-29T19:02:05.921Z,21.47
2023-06-29T19:04:32.519Z,21.55
2023-06-29T19:06:59.110Z,21.67
2023-06-29T19:09:25.471Z,21.65
2023-06-29T19:11:51.981Z,21.52
2023-06-29T19:14:18.408Z,21.68
2023-06-29T19:16:44.811Z,21.85
2023-06-29T19:19:11.321Z,21.73
2023-06-29T19:21:47.663Z,21.62
2023-06-29T19:24:16.288Z,21.52
2023-06-29T19:26:42.746Z,21.28
2023-06-29T19:29:09.251Z,21.38
2023-06-29T19:31:35.664Z,21.45
2023-06-29T19:34:03.335Z,21.45
2023-06-29T19:36:31.220Z,21.49
2023-06-29T19:38:57.659Z,21.29
2023-06-29T19:41:24.036Z,21.26
2023-06-29T19:43:50.608Z,21.24
2023-06-29T19:46:17.050Z,21.03
2023-06-29T19:48:43.503Z,20.89
2023-06-29T19:51:09.843Z,20.86
2023-06-29T19:53:36.302Z,20.85
2023-06-29T19:56:03.352Z,20.89
2023-06-29T19:58:29.755Z,20.74
2023-06-29T20:00:56.817Z,20.84
2023-06-29T20:03:23.342Z,20.76
2023-06-29T20:05:50.141Z,20.83
2023-06-29T20:08:16.914Z,20.75
2023-06-29T20:10:43.489Z,20.68
2023-06-29T20:13:10.356Z,20.55
2023-06-29T20:15:37.311Z,20.32
2023-06-29T20:18:03.708Z,20.14
2023-06-29T20:20:30.427Z,20.08
2023-06-29T20:22:56.773Z,20.07
2023-06-29T20:25:23.241Z,20.17
2023-06-29T20:27:49.652Z,20.44
2023-06-29T20:30:16.616Z,20.60
2023-06-29T20:32:43.014Z,20.83
2023-06-29T20:35:09.448Z,20.98
2023-06-29T20:37:35.788Z,21.04
2023-06-29T20:40:02.199Z,21.15
2023-06-29T20:42:28.562Z,21.09
2023-06-29T20:44:57.575Z,21.14
2023-06-29T20:47:25.851Z,21.14
2023-06-29T20:49:52.214Z,21.05
2023-06-29T20:52:18.899Z,21.06
2023-06-29T20:54:45.336Z,20.98
2023-06-29T20:57:11.769Z,20.93
2023-06-29T20:59:38.150Z,20.72
2023-06-29T21:02:04.648Z,20.44
2023-06-29T21:04:33.148Z,20.52
2023-06-29T21:06:59.616Z,20.49
2023-06-29T21:09:26.054Z,20.43
2023-06-29T21:11:52.866Z,20.25
2023-06-29T21:14:19.400Z,20.12
2023-06-29T21:16:46.176Z,20.06
2023-06-29T21:19:12.748Z,20.08
2023-06-29T21:21:39.278Z,20.16
2023-06-29T21:24:05.870Z,20.25
2023-06-29T21:26:32.361Z,20.17
2023-06-29T21:29:01.073Z,20.15
2023-06-29T21:31:29.746Z,20.25
2023-06-29T21:33:56.245Z,20.18
2023-06-29T21:36:22.722Z,20.07
2023-06-29T21:38:51.195Z,19.91
2023-06-29T21:41:17.758Z,19.79
2023-06-29T21:43:44.338Z,19.60
2023-06-29T21:46:10.725Z,19.52
2023-06-29T21:48:39.586Z,19.60
2023-06-29T21:51:07.012Z,19.80
2023-06-29T21:53:33.407Z,19.95
2023-06-29T21:56:10.245Z,19.93
2023-06-29T21:58:43.381Z,19.78
2023-06-29T22:01:09.726Z,19.91
2023-06-29T22:03:36.191Z,19.87
2023-06-29T22:06:02.638Z,19.95
2023-06-29T22:08:29.050Z,20.04
2023-06-29T22:10:55.449Z,20.09
2023-06-29T22:13:24.340Z,20.00
2023-06-29T22:15:53.467Z,20.06
2023-06-29T22:18:20.134Z,20.08
2023-06-29T22:20:46.675Z,20.02
2023-06-29T22:23:13.134Z,20.14
2023-06-29T22:25:39.506Z,20.08
2023-06-29T22:28:07.897Z,20.16
2023-06-29T22:30:34.308Z,20.14
2023-06-29T22:33:00.729Z,19.97
2023-06-29T22:35:27.214Z,20.12
2023-06-29T22:37:53.621Z,20.03
2023-06-29T22:40:20.079Z,20.13
2023-06-29T22:42:46.601Z,20.22
2023-06-29T22:45:13.399Z,20.25
2023-06-29T22:47:39.791Z,20.37
2023-06-29T22:50:07.152Z,20.31
2023-06-29T22:52:33.539Z,20.25
2023-06-29T22:54:59.888Z,20.16
2023-06-29T22:57:26.316Z,20.30
2023-06-29T22:59:54.620Z,20.31
2023-06-29T23:02:21.076Z,20.22
2023-06-29T23:04:47.727Z,20.30
2023-06-29T23:07:14.437Z,20.31
2023-06-29T23:09:40.826Z,20.20
2023-06-29T23:12:07.549Z,20.29
2023-06-29T23:14:34.317Z,20.31
2023-06-29T23:17:04.165Z,20.10
2023-06-29T23:19:30.976Z,20.30
2023-06-29T23:21:57.856Z,20.38
2023-06-29T23:24:24.234Z,20.45
2023-06-29T23:26:50.784Z,20.48
2023-06-29T23:29:17.176Z,20.58
2023-06-29T23:31:43.845Z,20.57
2023-06-29T23:34:10.312Z,20.63
2023-06-29T23:36:36.673Z,20.56
2023-06-29T23:39:03.596Z,20.56
2023-06-29T23:41:30.011Z,20.62
2023-06-29T23:44:05.632Z,20.61
2023-06-29T23:46:45.718Z,20.61
2023-06-29T23:49:13.756Z,20.69
2023-06-29T23:51:41.202Z,20.64
2023-06-29T23:54:08.499Z,20.57
2023-06-29T23:56:34.961Z,20.63
2023-06-29T23:59:01.585Z,20.63
